createdAt,value
2022-08-31T00:00:44.092Z,84.16
2022-08-31T00:02:04.639Z,84.46
2022-08-31T00:03:25.354Z,85.03
2022-08-31T00:04:27.917Z,85.58
2022-08-31T00:05:29.689Z,86.05
2022-08-31T00:06:35.281Z,86.38
2022-08-31T00:07:37.396Z,86.57
2022-08-31T00:08:41.978Z,86.82
2022-08-31T00:09:43.602Z,87.24
2022-08-31T00:10:46.659Z,87.07
2022-08-31T00:11:48.960Z,87.04
2022-08-31T00:12:50.865Z,87.30
2022-08-31T00:14:02.212Z,87.11
2022-08-31T00:15:05.788Z,87.32
2022-08-31T00:16:09.451Z,87.28
2022-08-31T00:17:11.241Z,87.46
2022-08-31T00:18:13.013Z,87.53
2022-08-31T00:19:15.220Z,87.07
2022-08-31T00:20:33.227Z,87.33
2022-08-31T00:21:35.816Z,87.62
2022-08-31T00:22:37.524Z,87.53
2022-08-31T00:23:39.108Z,87.57
2022-08-31T00:24:40.791Z,87.30
2022-08-31T00:25:44.941Z,86.94
2022-08-31T00:26:46.667Z,86.18
2022-08-31T00:27:48.292Z,86.04
2022-08-31T00:28:50.701Z,85.80
2022-08-31T00:29:52.372Z,85.77
2022-08-31T00:30:54.049Z,85.37
2022-08-31T00:31:55.640Z,85.32
2022-08-31T00:32:58.579Z,84.64
2022-08-31T00:34:00.405Z,84.28
2022-08-31T00:35:02.065Z,84.04
2022-08-31T00:36:06.132Z,84.15
2022-08-31T00:37:07.712Z,83.88
2022-08-31T00:38:10.847Z,84.13
2022-08-31T00:39:12.429Z,84.29
2022-08-31T00:40:14.278Z,84.65
2022-08-31T00:41:17.906Z,84.48
2022-08-31T00:42:19.543Z,84.13
2022-08-31T00:43:34.443Z,84.66
2022-08-31T00:44:36.040Z,84.26
2022-08-31T00:45:37.698Z,84.71
2022-08-31T00:46:42.399Z,84.65
2022-08-31T00:47:44.010Z,84.16
2022-08-31T00:49:15.728Z,83.88
2022-08-31T00:50:19.031Z,84.16
2022-08-31T00:51:20.680Z,85.00
2022-08-31T00:52:27.592Z,85.98
2022-08-31T00:53:29.456Z,86.09
2022-08-31T00:54:36.815Z,86.73
2022-08-31T00:55:38.489Z,87.95
2022-08-31T00:56:41.733Z,89.26
2022-08-31T00:57:48.269Z,89.28
2022-08-31T00:58:54.673Z,89.21
2022-08-31T00:59:56.722Z,89.12
2022-08-31T01:00:59.885Z,88.80
2022-08-31T01:02:01.843Z,90.15
2022-08-31T01:03:06.756Z,90.40
2022-08-31T01:04:08.471Z,91.54
2022-08-31T01:05:11.170Z,92.78
2022-08-31T01:06:13.923Z,92.87
2022-08-31T01:07:15.796Z,93.33
2022-08-31T01:08:17.834Z,93.63
2022-08-31T01:09:26.270Z,94.53
2022-08-31T01:10:31.956Z,96.75
2022-08-31T01:11:35.565Z,97.43
2022-08-31T01:12:37.785Z,98.01
2022-08-31T01:13:41.890Z,99.58
2022-08-31T01:14:43.660Z,99.29
2022-08-31T01:15:51.299Z,97.64
2022-08-31T01:16:56.457Z,98.68
2022-08-31T01:18:04.715Z,98.55
2022-08-31T01:19:17.454Z,99.19
2022-08-31T01:20:30.276Z,99.33
2022-08-31T01:22:00.721Z,98.27
2022-08-31T01:23:02.247Z,97.26
2022-08-31T01:24:06.268Z,97.02
2022-08-31T01:25:08.144Z,96.99
2022-08-31T01:26:13.455Z,96.48
2022-08-31T01:27:19.897Z,95.97
2022-08-31T01:28:21.489Z,95.78
2022-08-31T01:29:23.163Z,95.28
2022-08-31T01:30:26.619Z,95.50
2022-08-31T01:31:33.669Z,94.65
2022-08-31T01:32:37.413Z,93.70
2022-08-31T01:33:39.543Z,93.37
2022-08-31T01:34:41.777Z,92.99
2022-08-31T01:35:45.224Z,93.44
2022-08-31T01:36:48.245Z,93.44
2022-08-31T01:37:50.119Z,93.00
2022-08-31T01:38:53.500Z,93.22
2022-08-31T01:39:55.425Z,93.22
2022-08-31T01:41:01.914Z,93.47
2022-08-31T01:42:03.965Z,93.84
2022-08-31T01:43:05.562Z,93.64
2022-08-31T01:44:08.051Z,93.65
2022-08-31T01:45:10.738Z,93.81
2022-08-31T01:46:13.384Z,93.74
2022-08-31T01:47:14.969Z,93.64
2022-08-31T01:48:17.527Z,94.39
2022-08-31T01:49:20.697Z,94.54
2022-08-31T01:50:22.381Z,94.93
2022-08-31T01:51:24.064Z,95.25
2022-08-31T01:52:27.734Z,95.43
2022-08-31T01:53:29.650Z,95.33
2022-08-31T01:54:31.677Z,95.66
2022-08-31T01:55:33.280Z,96.14
2022-08-31T01:56:38.590Z,96.52
2022-08-31T01:57:40.228Z,96.93
2022-08-31T01:58:42.069Z,97.23
2022-08-31T01:59:46.664Z,98.24
2022-08-31T02:00:48.377Z,98.49
2022-08-31T02:01:52.914Z,98.55
2022-08-31T02:02:57.486Z,98.44
2022-08-31T02:03:59.232Z,98.52
2022-08-31T02:05:01.076Z,98.54
2022-08-31T02:06:10.467Z,98.65
2022-08-31T02:07:12.074Z,98.23
2022-08-31T02:08:13.724Z,97.39
2022-08-31T02:09:16.040Z,97.39
2022-08-31T02:10:17.698Z,96.88
2022-08-31T02:11:19.374Z,96.99
2022-08-31T02:12:21.030Z,96.85
2022-08-31T02:13:22.676Z,96.41
2022-08-31T02:14:25.029Z,96.76
2022-08-31T02:15:26.631Z,96.89
2022-08-31T02:16:28.366Z,96.18
2022-08-31T02:17:30.428Z,94.75
2022-08-31T02:18:34.210Z,94.80
2022-08-31T02:19:35.887Z,95.09
2022-08-31T02:20:37.531Z,95.04
2022-08-31T02:21:39.385Z,94.52
2022-08-31T02:22:41.913Z,94.12
2022-08-31T02:23:43.601Z,94.32
2022-08-31T02:24:45.241Z,94.73
2022-08-31T02:25:46.909Z,94.48
2022-08-31T02:26:53.066Z,94.33
2022-08-31T02:27:55.418Z,94.49
2022-08-31T02:28:57.081Z,94.33
2022-08-31T02:29:58.693Z,94.21
2022-08-31T02:31:00.307Z,94.33
2022-08-31T02:32:02.026Z,94.43
2022-08-31T02:33:04.054Z,94.36
2022-08-31T02:34:05.711Z,94.73
2022-08-31T02:35:08.483Z,95.85
2022-08-31T02:36:10.108Z,96.64
2022-08-31T02:37:13.250Z,97.17
2022-08-31T02:38:14.881Z,97.49
2022-08-31T02:39:16.727Z,98.51
2022-08-31T02:40:18.524Z,98.51
2022-08-31T02:41:20.327Z,99.71
2022-08-31T02:42:22.263Z,100.00
2022-08-31T02:43:24.691Z,100.00
2022-08-31T02:44:26.880Z,100.00
2022-08-31T02:45:28.523Z,100.00
2022-08-31T02:46:30.179Z,100.00
2022-08-31T02:47:31.917Z,100.00
2022-08-31T02:48:35.351Z,100.00
2022-08-31T02:49:36.979Z,100.00
2022-08-31T02:50:43.666Z,100.00
2022-08-31T02:51:45.253Z,99.85
2022-08-31T02:52:47.724Z,99.42
2022-08-31T02:53:50.795Z,99.32
2022-08-31T02:54:52.386Z,99.97
2022-08-31T02:55:53.963Z,99.99
2022-08-31T02:56:55.608Z,99.93
2022-08-31T02:57:57.301Z,99.97
2022-08-31T02:58:59.198Z,99.83
2022-08-31T03:00:00.900Z,99.90
2022-08-31T03:01:04.584Z,100.00
2022-08-31T03:02:06.268Z,100.00
2022-08-31T03:03:08.005Z,99.60
2022-08-31T03:04:09.678Z,99.25
2022-08-31T03:05:12.848Z,99.27
2022-08-31T03:06:15.085Z,98.68
2022-08-31T03:07:16.780Z,97.54
2022-08-31T03:08:19.459Z,97.20
2022-08-31T03:09:21.376Z,96.62
2022-08-31T03:10:25.333Z,96.43
2022-08-31T03:11:27.340Z,97.21
2022-08-31T03:12:29.080Z,97.60
2022-08-31T03:13:30.764Z,97.86
2022-08-31T03:14:32.362Z,97.94
2022-08-31T03:15:34.019Z,97.92
2022-08-31T03:16:35.631Z,97.45
2022-08-31T03:17:37.246Z,97.24
2022-08-31T03:18:38.851Z,96.40
2022-08-31T03:19:40.441Z,95.82
2022-08-31T03:20:42.034Z,95.64
2022-08-31T03:21:45.557Z,95.59
2022-08-31T03:22:49.257Z,95.97
2022-08-31T03:23:50.830Z,96.52
2022-08-31T03:24:52.411Z,95.86
2022-08-31T03:25:54.007Z,96.19
2022-08-31T03:26:56.020Z,95.60
2022-08-31T03:27:57.620Z,94.96
2022-08-31T03:29:00.115Z,94.73
2022-08-31T03:30:01.756Z,95.03
2022-08-31T03:31:06.916Z,95.09
2022-08-31T03:32:08.578Z,95.29
2022-08-31T03:33:10.242Z,95.82
2022-08-31T03:34:11.844Z,96.10
2022-08-31T03:35:18.284Z,96.33
2022-08-31T03:36:19.887Z,96.54
2022-08-31T03:37:21.975Z,97.56
2022-08-31T03:38:23.559Z,97.02
2022-08-31T03:39:25.197Z,96.89
2022-08-31T03:40:27.001Z,96.88
2022-08-31T03:41:28.624Z,97.49
2022-08-31T03:42:32.083Z,97.43
2022-08-31T03:43:33.956Z,97.22
2022-08-31T03:44:36.734Z,97.40
2022-08-31T03:45:40.140Z,97.91
2022-08-31T03:46:45.438Z,98.12
2022-08-31T03:47:47.126Z,98.20
2022-08-31T03:48:49.933Z,98.34
2022-08-31T03:49:51.508Z,97.97
2022-08-31T03:50:53.144Z,98.03
2022-08-31T03:51:54.730Z,97.80
2022-08-31T03:52:56.309Z,98.15
2022-08-31T03:53:58.004Z,98.29
2022-08-31T03:55:00.100Z,99.35
2022-08-31T03:56:03.800Z,99.00
2022-08-31T03:57:06.535Z,98.68
2022-08-31T03:58:08.790Z,98.97
2022-08-31T03:59:10.466Z,98.79
2022-08-31T04:00:12.645Z,99.26
2022-08-31T04:01:14.531Z,99.54
2022-08-31T04:02:16.302Z,100.00
2022-08-31T04:03:18.074Z,100.00
2022-08-31T04:04:19.812Z,100.00
2022-08-31T04:05:21.439Z,100.00
2022-08-31T04:06:23.028Z,100.00
2022-08-31T04:07:24.660Z,100.00
2022-08-31T04:08:26.442Z,100.00
2022-08-31T04:09:28.071Z,100.00
2022-08-31T04:10:29.677Z,100.00
2022-08-31T04:11:45.077Z,100.00
2022-08-31T04:12:47.316Z,100.00
2022-08-31T04:13:49.267Z,100.00
2022-08-31T04:14:50.895Z,100.00
2022-08-31T04:15:52.590Z,100.00
2022-08-31T04:16:54.219Z,100.00
2022-08-31T04:17:57.210Z,100.00
2022-08-31T04:18:59.292Z,100.00
2022-08-31T04:20:00.945Z,100.00
2022-08-31T04:21:03.485Z,100.00
2022-08-31T04:22:05.084Z,100.00
2022-08-31T04:23:06.883Z,100.00
2022-08-31T04:24:08.464Z,100.00
2022-08-31T04:25:10.458Z,100.00
2022-08-31T04:26:20.583Z,100.00
2022-08-31T04:27:22.205Z,100.00
2022-08-31T04:28:25.047Z,100.00
2022-08-31T04:29:26.995Z,100.00
2022-08-31T04:30:28.655Z,100.00
2022-08-31T04:31:31.372Z,100.00
2022-08-31T04:32:33.731Z,100.00
2022-08-31T04:33:39.546Z,100.00
2022-08-31T04:34:41.115Z,100.00
2022-08-31T04:35:43.341Z,100.00
2022-08-31T04:36:45.918Z,100.00
2022-08-31T04:37:48.132Z,100.00
2022-08-31T04:38:53.062Z,100.00
2022-08-31T04:39:57.013Z,100.00
2022-08-31T04:41:12.368Z,100.00
2022-08-31T04:42:13.939Z,100.00
2022-08-31T04:43:15.580Z,100.00
2022-08-31T04:44:19.913Z,100.00
2022-08-31T04:45:22.155Z,100.00
2022-08-31T04:46:23.956Z,100.00
2022-08-31T04:47:25.759Z,100.00
2022-08-31T04:48:27.387Z,100.00
2022-08-31T04:49:28.943Z,100.00
2022-08-31T04:50:31.207Z,100.00
2022-08-31T04:51:35.569Z,100.00
2022-08-31T04:52:37.727Z,100.00
2022-08-31T04:53:40.580Z,100.00
2022-08-31T04:54:42.289Z,100.00
2022-08-31T04:55:44.115Z,100.00
2022-08-31T04:56:46.348Z,99.68
2022-08-31T04:57:47.967Z,99.21
2022-08-31T04:59:01.455Z,98.63
2022-08-31T05:00:05.650Z,97.88
2022-08-31T05:01:11.742Z,97.58
2022-08-31T05:02:13.465Z,97.15
2022-08-31T05:03:15.196Z,97.29
2022-08-31T05:04:16.821Z,97.16
2022-08-31T05:05:18.527Z,96.77
2022-08-31T05:06:23.362Z,97.85
2022-08-31T05:07:25.738Z,98.03
2022-08-31T05:08:27.910Z,98.14
2022-08-31T05:09:29.605Z,97.20
2022-08-31T05:10:31.845Z,96.91
2022-08-31T05:11:34.553Z,96.92
2022-08-31T05:12:36.158Z,97.29
2022-08-31T05:13:37.949Z,97.83
2022-08-31T05:14:39.609Z,97.19
2022-08-31T05:15:43.673Z,97.49
2022-08-31T05:16:45.978Z,97.47
2022-08-31T05:17:47.568Z,96.99
2022-08-31T05:18:51.270Z,96.43
2022-08-31T05:19:53.252Z,95.09
2022-08-31T05:20:54.851Z,93.62
2022-08-31T05:21:56.428Z,94.07
2022-08-31T05:22:58.484Z,93.89
2022-08-31T05:24:06.249Z,94.25
2022-08-31T05:25:09.344Z,94.42
2022-08-31T05:26:18.224Z,94.59
2022-08-31T05:27:19.919Z,94.76
2022-08-31T05:28:23.669Z,94.55
2022-08-31T05:29:26.092Z,94.56
2022-08-31T05:30:27.979Z,94.36
2022-08-31T05:31:30.962Z,94.44
2022-08-31T05:32:32.673Z,93.53
2022-08-31T05:33:38.117Z,93.48
2022-08-31T05:34:41.550Z,93.22
2022-08-31T05:35:44.756Z,94.06
2022-08-31T05:36:50.698Z,94.83
2022-08-31T05:37:54.748Z,95.19
2022-08-31T05:39:00.801Z,94.34
2022-08-31T05:40:03.050Z,93.99
2022-08-31T05:41:06.234Z,95.28
2022-08-31T05:42:07.962Z,93.26
2022-08-31T05:43:09.685Z,92.53
2022-08-31T05:44:12.346Z,91.46
2022-08-31T05:45:13.990Z,90.88
2022-08-31T05:46:17.043Z,91.27
2022-08-31T05:47:18.680Z,91.47
2022-08-31T05:48:20.655Z,90.67
2022-08-31T05:49:28.152Z,92.26
2022-08-31T05:50:29.885Z,93.46
2022-08-31T05:51:34.937Z,94.30
2022-08-31T05:52:39.571Z,93.98
2022-08-31T05:53:41.919Z,93.54
2022-08-31T05:54:43.710Z,92.63
2022-08-31T05:55:45.333Z,91.56
2022-08-31T05:56:46.890Z,91.19
2022-08-31T05:57:49.148Z,90.51
2022-08-31T05:58:51.200Z,90.97
2022-08-31T05:59:52.830Z,89.20
2022-08-31T06:00:54.496Z,89.63
2022-08-31T06:01:57.121Z,89.93
2022-08-31T06:02:59.052Z,89.28
2022-08-31T06:04:01.653Z,88.78
2022-08-31T06:05:03.422Z,87.09
2022-08-31T06:06:05.572Z,87.72
2022-08-31T06:07:07.472Z,87.65
2022-08-31T06:08:13.091Z,88.63
2022-08-31T06:09:16.815Z,87.47
2022-08-31T06:10:19.059Z,88.62
2022-08-31T06:11:24.214Z,89.14
2022-08-31T06:12:26.364Z,89.53
2022-08-31T06:13:27.929Z,88.71
2022-08-31T06:14:29.563Z,87.85
2022-08-31T06:15:31.174Z,87.17
2022-08-31T06:16:33.536Z,86.67
2022-08-31T06:17:36.228Z,85.84
2022-08-31T06:18:50.727Z,85.52
2022-08-31T06:19:52.458Z,87.23
2022-08-31T06:21:09.114Z,87.87
2022-08-31T06:22:10.824Z,88.29
2022-08-31T06:23:12.426Z,89.00
2022-08-31T06:24:14.839Z,89.05
2022-08-31T06:25:19.495Z,88.26
2022-08-31T06:26:22.906Z,89.19
2022-08-31T06:27:24.971Z,88.98
2022-08-31T06:28:26.764Z,88.78
2022-08-31T06:29:31.558Z,88.71
2022-08-31T06:30:52.959Z,90.84
2022-08-31T06:31:57.024Z,90.86
2022-08-31T06:32:59.057Z,90.73
2022-08-31T06:34:02.403Z,91.44
2022-08-31T06:35:04.230Z,90.83
2022-08-31T06:36:14.296Z,90.30
2022-08-31T06:37:18.507Z,89.87
2022-08-31T06:38:20.941Z,90.60
2022-08-31T06:39:23.496Z,90.85
2022-08-31T06:40:26.769Z,89.81
2022-08-31T06:41:39.993Z,90.44
2022-08-31T06:42:41.595Z,90.13
2022-08-31T06:43:44.533Z,89.15
2022-08-31T06:44:46.145Z,88.72
2022-08-31T06:45:47.776Z,88.13
2022-08-31T06:46:50.628Z,88.26
2022-08-31T06:47:52.407Z,89.03
2022-08-31T06:48:55.917Z,87.82
2022-08-31T06:49:57.619Z,88.23
2022-08-31T06:50:59.578Z,87.53
2022-08-31T06:52:01.213Z,85.98
2022-08-31T06:53:02.817Z,84.56
2022-08-31T06:54:21.754Z,83.60
2022-08-31T06:55:28.930Z,82.66
2022-08-31T06:56:30.749Z,82.11
2022-08-31T06:57:32.355Z,80.68
2022-08-31T06:58:37.560Z,80.12
2022-08-31T06:59:39.127Z,79.97
2022-08-31T07:00:41.251Z,78.52
2022-08-31T07:01:43.007Z,78.25
2022-08-31T07:02:44.909Z,76.85
2022-08-31T07:03:57.060Z,76.70
2022-08-31T07:04:58.616Z,76.18
2022-08-31T07:06:16.800Z,75.62
2022-08-31T07:07:18.388Z,75.12
2022-08-31T07:08:21.393Z,72.71
2022-08-31T07:09:23.210Z,73.76
2022-08-31T07:10:24.803Z,74.49
2022-08-31T07:11:41.019Z,75.06
2022-08-31T07:12:45.764Z,74.49
2022-08-31T07:13:48.345Z,73.69
2022-08-31T07:14:52.929Z,73.15
2022-08-31T07:16:09.191Z,73.44
2022-08-31T07:17:10.824Z,73.16
2022-08-31T07:18:12.417Z,74.27
2022-08-31T07:19:15.338Z,71.72
2022-08-31T07:20:17.006Z,72.13
2022-08-31T07:21:29.349Z,71.05
2022-08-31T07:22:30.955Z,70.00
2022-08-31T07:23:32.794Z,71.21
2022-08-31T07:24:35.320Z,70.61
2022-08-31T07:25:39.253Z,70.77
2022-08-31T07:26:46.896Z,70.04
2022-08-31T07:27:50.515Z,70.48
2022-08-31T07:28:54.322Z,69.64
2022-08-31T07:29:55.982Z,69.24
2022-08-31T07:30:57.599Z,69.52
2022-08-31T07:31:59.852Z,69.80
2022-08-31T07:33:06.787Z,69.50
2022-08-31T07:34:10.665Z,71.13
2022-08-31T07:35:12.247Z,70.81
2022-08-31T07:36:15.882Z,67.43
2022-08-31T07:37:36.108Z,68.92
2022-08-31T07:38:57.088Z,66.14
2022-08-31T07:40:17.533Z,67.67
2022-08-31T07:41:37.741Z,67.68
2022-08-31T07:42:44.528Z,65.33
2022-08-31T07:43:46.120Z,65.77
2022-08-31T07:44:53.594Z,63.99
2022-08-31T07:45:55.550Z,63.58
2022-08-31T07:46:57.578Z,63.04
2022-08-31T07:48:00.421Z,62.81
2022-08-31T07:49:03.026Z,63.43
2022-08-31T07:50:04.911Z,64.17
2022-08-31T07:51:06.508Z,64.37
2022-08-31T07:52:08.855Z,64.34
2022-08-31T07:53:11.545Z,64.46
2022-08-31T07:54:14.411Z,63.30
2022-08-31T07:55:18.047Z,62.34
2022-08-31T07:56:21.804Z,62.92
2022-08-31T07:57:30.160Z,64.51
2022-08-31T07:58:31.794Z,63.99
2022-08-31T07:59:34.432Z,65.12
2022-08-31T08:00:43.314Z,64.25
2022-08-31T08:01:45.770Z,65.38
2022-08-31T08:02:52.735Z,65.08
2022-08-31T08:03:54.682Z,65.24
2022-08-31T08:04:56.351Z,65.27
2022-08-31T08:05:58.248Z,63.17
2022-08-31T08:07:05.970Z,62.90
2022-08-31T08:08:13.893Z,62.62
2022-08-31T08:09:24.473Z,61.29
2022-08-31T08:10:30.022Z,61.09
2022-08-31T08:11:32.354Z,61.56
2022-08-31T08:12:36.335Z,61.17
2022-08-31T08:13:38.978Z,61.61
2022-08-31T08:14:41.948Z,60.99
2022-08-31T08:15:43.547Z,60.99
2022-08-31T08:16:45.119Z,60.24
2022-08-31T08:17:46.688Z,59.53
2022-08-31T08:18:48.325Z,59.97
2022-08-31T08:19:49.948Z,59.94
2022-08-31T08:20:52.792Z,59.57
2022-08-31T08:21:55.597Z,60.11
2022-08-31T08:22:57.824Z,59.76
2022-08-31T08:24:00.042Z,58.82
2022-08-31T08:25:06.986Z,59.81
2022-08-31T08:26:21.220Z,60.03
2022-08-31T08:27:23.870Z,60.05
2022-08-31T08:28:45.964Z,58.92
2022-08-31T08:29:48.530Z,58.17
2022-08-31T08:30:54.438Z,58.24
2022-08-31T08:31:56.403Z,58.15
2022-08-31T08:33:03.906Z,56.76
2022-08-31T08:34:05.644Z,57.34
2022-08-31T08:35:08.471Z,57.80
2022-08-31T08:36:10.743Z,56.80
2022-08-31T08:37:13.481Z,56.09
2022-08-31T08:38:15.046Z,57.52
2022-08-31T08:39:18.308Z,58.47
2022-08-31T08:40:42.629Z,58.08
2022-08-31T08:41:47.184Z,58.05
2022-08-31T08:42:48.764Z,58.56
2022-08-31T08:43:53.261Z,57.28
2022-08-31T08:44:59.059Z,57.97
2022-08-31T08:46:15.221Z,58.38
2022-08-31T08:47:37.582Z,57.42
2022-08-31T08:48:43.726Z,57.46
2022-08-31T08:49:53.970Z,57.74
2022-08-31T08:50:56.702Z,56.61
2022-08-31T08:52:11.891Z,56.29
2022-08-31T08:53:15.258Z,56.45
2022-08-31T08:54:26.286Z,56.93
2022-08-31T08:55:35.653Z,55.73
2022-08-31T08:56:42.096Z,56.71
2022-08-31T08:57:46.842Z,57.01
2022-08-31T08:58:48.544Z,56.22
2022-08-31T08:59:53.974Z,55.17
2022-08-31T09:00:57.287Z,55.32
2022-08-31T09:02:07.031Z,55.73
2022-08-31T09:03:30.883Z,56.17
2022-08-31T09:05:42.938Z,56.44
2022-08-31T09:06:59.533Z,56.72
2022-08-31T09:08:25.628Z,56.63
2022-08-31T09:10:08.350Z,57.47
2022-08-31T09:11:20.249Z,57.39
2022-08-31T09:12:42.906Z,57.40
2022-08-31T09:13:49.101Z,57.31
2022-08-31T09:15:08.051Z,57.22
2022-08-31T09:16:09.702Z,58.03
2022-08-31T09:17:42.513Z,57.66
2022-08-31T09:18:47.084Z,58.98
2022-08-31T09:20:05.681Z,59.13
2022-08-31T09:21:21.912Z,59.06
2022-08-31T09:22:23.500Z,59.16
2022-08-31T09:23:28.065Z,59.40
2022-08-31T09:24:32.708Z,60.00
2022-08-31T09:25:52.171Z,60.06
2022-08-31T09:27:05.085Z,60.24
2022-08-31T09:28:08.748Z,60.08
2022-08-31T09:29:20.857Z,59.98
2022-08-31T09:30:45.617Z,59.82
2022-08-31T09:31:47.571Z,59.18
2022-08-31T09:32:57.429Z,59.13
2022-08-31T09:33:59.046Z,58.77
2022-08-31T09:35:09.265Z,58.51
2022-08-31T09:36:15.372Z,58.96
2022-08-31T09:37:23.456Z,58.44
2022-08-31T09:38:28.102Z,59.23
2022-08-31T09:39:36.941Z,59.18
2022-08-31T09:40:47.891Z,59.73
2022-08-31T09:41:50.822Z,60.11
2022-08-31T09:43:08.445Z,59.79
2022-08-31T09:44:29.465Z,59.77
2022-08-31T09:45:37.782Z,60.08
2022-08-31T09:46:56.667Z,59.97
2022-08-31T09:48:01.280Z,60.47
2022-08-31T09:49:03.237Z,60.87
2022-08-31T09:50:09.396Z,60.82
2022-08-31T09:51:21.616Z,60.69
2022-08-31T09:52:54.167Z,60.90
2022-08-31T09:54:23.125Z,61.50
2022-08-31T09:55:28.076Z,61.27
2022-08-31T09:56:29.828Z,61.78
2022-08-31T09:57:43.442Z,63.01
2022-08-31T09:58:52.599Z,63.15
2022-08-31T09:59:55.947Z,62.83
2022-08-31T10:00:58.078Z,62.25
2022-08-31T10:02:01.193Z,61.77
2022-08-31T10:03:22.555Z,62.13
2022-08-31T10:04:27.744Z,61.86
2022-08-31T10:05:44.548Z,61.46
2022-08-31T10:07:28.781Z,62.03
2022-08-31T10:08:53.616Z,62.05
2022-08-31T10:10:03.580Z,61.87
2022-08-31T10:11:11.527Z,61.76
2022-08-31T10:12:21.426Z,61.96
2022-08-31T10:13:34.599Z,62.15
2022-08-31T10:14:41.828Z,61.97
2022-08-31T10:16:08.329Z,60.49
2022-08-31T10:17:19.113Z,60.12
2022-08-31T10:18:30.527Z,60.89
2022-08-31T10:19:44.853Z,60.23
2022-08-31T10:20:56.008Z,60.66
2022-08-31T10:22:03.511Z,59.87
2022-08-31T10:23:14.539Z,59.03
2022-08-31T10:24:48.424Z,59.08
2022-08-31T10:26:04.563Z,59.00
2022-08-31T10:27:23.793Z,57.50
2022-08-31T10:28:32.120Z,56.78
2022-08-31T10:29:46.098Z,57.51
2022-08-31T10:30:59.690Z,56.64
2022-08-31T10:32:09.208Z,56.23
2022-08-31T10:33:16.317Z,57.05
2022-08-31T10:34:41.381Z,55.44
2022-08-31T10:36:00.665Z,55.49
2022-08-31T10:37:38.329Z,55.82
2022-08-31T10:38:47.583Z,56.24
2022-08-31T10:39:54.097Z,54.34
2022-08-31T10:41:16.831Z,55.34
2022-08-31T10:42:37.331Z,51.97
2022-08-31T10:44:17.806Z,51.89
2022-08-31T10:45:24.080Z,50.93
2022-08-31T10:46:26.080Z,50.38
2022-08-31T10:47:33.250Z,50.51
2022-08-31T10:48:37.280Z,50.83
2022-08-31T10:49:40.125Z,51.20
2022-08-31T10:50:49.040Z,51.04
2022-08-31T10:51:55.924Z,50.23
2022-08-31T10:53:03.365Z,48.24
2022-08-31T10:54:24.774Z,48.33
2022-08-31T10:55:29.232Z,48.95
2022-08-31T10:57:05.890Z,48.91
2022-08-31T10:58:07.437Z,49.85
2022-08-31T10:59:19.922Z,50.32
2022-08-31T11:00:45.792Z,51.09
2022-08-31T11:02:13.331Z,51.66
2022-08-31T11:03:36.627Z,50.36
2022-08-31T11:04:58.333Z,49.85
2022-08-31T11:06:30.062Z,50.42
2022-08-31T11:07:43.919Z,48.53
2022-08-31T11:09:02.489Z,48.09
2022-08-31T11:10:22.237Z,47.95
2022-08-31T11:11:26.817Z,48.63
2022-08-31T11:12:40.953Z,47.78
2022-08-31T11:14:00.263Z,46.86
2022-08-31T11:15:39.326Z,46.46
2022-08-31T11:16:50.168Z,45.75
2022-08-31T11:18:14.810Z,45.02
2022-08-31T11:19:31.300Z,44.89
2022-08-31T11:21:12.678Z,44.72
2022-08-31T11:22:30.938Z,45.75
2022-08-31T11:23:58.957Z,45.83
2022-08-31T11:25:04.021Z,45.32
2022-08-31T11:26:08.314Z,43.82
2022-08-31T11:27:33.586Z,43.47
2022-08-31T11:28:48.291Z,42.77
2022-08-31T11:29:56.756Z,42.63
2022-08-31T11:31:01.659Z,43.52
2022-08-31T11:32:26.103Z,43.60
2022-08-31T11:33:31.242Z,44.34
2022-08-31T11:34:47.000Z,44.83
2022-08-31T11:35:49.413Z,45.16
2022-08-31T11:36:57.669Z,44.63
2022-08-31T11:38:00.646Z,44.72
2022-08-31T11:39:03.171Z,44.68
2022-08-31T11:40:11.037Z,42.97
2022-08-31T11:41:31.810Z,44.21
2022-08-31T11:42:38.029Z,44.44
2022-08-31T11:43:44.682Z,44.59
2022-08-31T11:45:06.835Z,45.24
2022-08-31T11:46:27.246Z,44.51
2022-08-31T11:47:28.962Z,44.55
2022-08-31T11:48:53.563Z,44.82
2022-08-31T11:50:05.437Z,45.25
2022-08-31T11:51:07.578Z,44.42
2022-08-31T11:52:43.247Z,43.61
2022-08-31T11:53:49.391Z,44.32
2022-08-31T11:54:50.926Z,43.89
2022-08-31T11:56:00.499Z,43.86
2022-08-31T11:57:03.339Z,44.21
2022-08-31T11:58:20.791Z,44.61
2022-08-31T11:59:35.265Z,43.76
2022-08-31T12:01:11.637Z,43.92
2022-08-31T12:02:19.348Z,41.92
2022-08-31T12:03:45.734Z,41.15
2022-08-31T12:05:00.405Z,41.36
2022-08-31T12:06:02.361Z,42.21
2022-08-31T12:07:04.644Z,41.96
2022-08-31T12:08:11.657Z,40.87
2022-08-31T12:09:44.260Z,41.47
2022-08-31T12:11:13.822Z,41.83
2022-08-31T12:12:42.383Z,40.89
2022-08-31T12:14:02.353Z,40.84
2022-08-31T12:15:28.665Z,41.17
2022-08-31T12:16:57.835Z,42.13
2022-08-31T12:18:38.425Z,42.37
2022-08-31T12:20:02.255Z,41.48
2022-08-31T12:21:36.096Z,41.55
2022-08-31T12:23:30.282Z,39.73
2022-08-31T12:25:15.208Z,39.49
2022-08-31T12:26:43.028Z,41.18
2022-08-31T12:28:03.902Z,41.20
2022-08-31T12:29:20.115Z,42.14
2022-08-31T12:30:24.548Z,43.39
2022-08-31T12:31:26.678Z,42.49
2022-08-31T12:32:40.440Z,42.59
2022-08-31T12:34:00.683Z,42.64
2022-08-31T12:35:18.499Z,41.09
2022-08-31T12:36:28.236Z,41.09
2022-08-31T12:37:37.902Z,41.26
2022-08-31T12:38:39.558Z,40.71
2022-08-31T12:39:41.118Z,40.53
2022-08-31T12:40:51.171Z,40.42
2022-08-31T12:42:00.296Z,40.76
2022-08-31T12:43:15.479Z,40.46
2022-08-31T12:44:22.379Z,40.89
2022-08-31T12:45:57.314Z,42.44
2022-08-31T12:47:03.447Z,41.61
2022-08-31T12:48:17.312Z,40.71
2022-08-31T12:49:56.433Z,40.46
2022-08-31T12:51:23.457Z,40.18
2022-08-31T12:52:34.150Z,39.70
2022-08-31T12:53:50.615Z,40.43
2022-08-31T12:55:33.332Z,40.40
2022-08-31T12:56:46.775Z,40.53
2022-08-31T12:57:57.139Z,40.65
2022-08-31T12:59:07.486Z,40.02
2022-08-31T13:00:15.746Z,39.70
2022-08-31T13:01:25.897Z,39.78
2022-08-31T13:02:29.868Z,40.75
2022-08-31T13:03:32.630Z,40.51
2022-08-31T13:04:34.306Z,39.67
2022-08-31T13:05:38.388Z,39.83
2022-08-31T13:06:42.021Z,39.57
2022-08-31T13:07:44.737Z,39.63
2022-08-31T13:08:49.987Z,40.27
2022-08-31T13:10:16.528Z,41.59
2022-08-31T13:11:34.908Z,40.96
2022-08-31T13:12:54.079Z,39.37
2022-08-31T13:14:13.803Z,39.84
2022-08-31T13:15:43.889Z,40.56
2022-08-31T13:17:07.606Z,41.35
2022-08-31T13:18:16.369Z,42.59
2022-08-31T13:19:25.720Z,40.74
2022-08-31T13:20:35.525Z,39.53
2022-08-31T13:21:37.228Z,39.10
2022-08-31T13:22:41.770Z,39.52
2022-08-31T13:23:44.898Z,39.24
2022-08-31T13:24:53.841Z,40.14
2022-08-31T13:26:22.910Z,40.45
2022-08-31T13:27:27.638Z,40.82
2022-08-31T13:28:30.533Z,40.33
2022-08-31T13:29:41.108Z,40.30
2022-08-31T13:30:55.398Z,40.54
2022-08-31T13:31:59.862Z,40.55
2022-08-31T13:33:11.783Z,39.63
2022-08-31T13:34:19.193Z,40.19
2022-08-31T13:35:25.715Z,40.49
2022-08-31T13:36:37.078Z,38.64
2022-08-31T13:38:06.022Z,38.92
2022-08-31T13:39:24.406Z,38.98
2022-08-31T13:40:27.925Z,39.07
2022-08-31T13:41:40.680Z,39.01
2022-08-31T13:42:45.719Z,39.00
2022-08-31T13:43:53.898Z,37.60
2022-08-31T13:45:00.112Z,37.89
2022-08-31T13:46:02.465Z,38.91
2022-08-31T13:47:12.106Z,39.18
2022-08-31T13:48:20.448Z,39.65
2022-08-31T13:49:35.961Z,38.67
2022-08-31T13:50:52.505Z,38.45
2022-08-31T13:51:54.764Z,38.68
2022-08-31T13:53:26.344Z,38.67
2022-08-31T13:54:29.256Z,38.76
2022-08-31T13:55:37.987Z,39.26
2022-08-31T13:56:54.878Z,38.63
2022-08-31T13:57:59.753Z,38.63
2022-08-31T13:59:25.171Z,39.83
2022-08-31T14:00:58.160Z,41.11
2022-08-31T14:02:30.961Z,44.21
2022-08-31T14:03:53.628Z,46.02
2022-08-31T14:05:01.617Z,47.13
2022-08-31T14:06:24.082Z,48.17
2022-08-31T14:07:43.941Z,49.61
2022-08-31T14:08:50.110Z,51.06
2022-08-31T14:09:57.054Z,52.27
2022-08-31T14:10:58.698Z,52.75
2022-08-31T14:12:04.453Z,54.04
2022-08-31T14:13:15.040Z,55.21
2022-08-31T14:14:16.659Z,55.80
2022-08-31T14:15:50.400Z,56.43
2022-08-31T14:16:57.572Z,57.31
2022-08-31T14:19:33.648Z,59.12
2022-08-31T14:20:36.941Z,59.15
2022-08-31T14:21:42.132Z,60.12
2022-08-31T14:22:45.570Z,60.84
2022-08-31T14:24:01.391Z,60.96
2022-08-31T14:25:03.644Z,60.69
2022-08-31T14:26:18.170Z,60.98
2022-08-31T14:27:19.749Z,61.20